Poplar Grove, IL (61065)

5:23 PM CST on February 11, 2016 (GMT -0600)
PG Elementary School | | Change Station
CLOSE
Current Station
Personal Weather Station
Location: Poplar Grove, IL
Elevation: 906 ft
Nearby Weather Stations

Elev 906 ft 42.37 °N, 88.82 °W | Updated 28 seconds ago

Clear
Clear
18.4 °F
Feels Like 18 °F
N
1.0
Wind Variable Wind from West
Gusts 2.0 mph

Today
High -- | Low -- °F
--% Chance of Precip.
Yesterday
High -- | Low -- °F
Precip. -- in
Pressure 30.33 in
Visibility 10.0 miles
Clouds Few 15000 ft
Scattered Clouds 25000 ft
Windchill 18 °F
Dew Point 8 °F
Humidity 64%
Rainfall 0.00 in
Snow Depth Not available.
6:57 AM 5:21 PM
Waxing Crescent, 15% visible
METAR KRFD 112254Z 00000KT 10SM FEW150 SCT250 M07/M16 A3029 RMK AO2 SLP270 T10721161
Pressure 30.33 in
Visibility 10.0 miles
Clouds Few 15000 ft
Scattered Clouds 25000 ft
Windchill 18 °F
Dew Point 8 °F
Humidity 64%
Rainfall 0.00 in
Snow Depth Not available.
6:57 AM 5:21 PM
Waxing Crescent, 15% visible
METAR KRFD 112254Z 00000KT 10SM FEW150 SCT250 M07/M16 A3029 RMK AO2 SLP270 T10721161

10-Day Weather Forecast

Almanac

Astronomy

Feb. 11, 2016 Rise Set
Actual Time
Civil Twilight
Nautical Twilight
Astronomical Twilight
Moon
Length of Visible Light
Length of Day
Tomorrow will be .
, % of the Moon is Illuminated

Today's Extremes

State Highs State Lows

Community

WunderPhotos

Upload Photos

1,892,180 photos uploaded!

WunderBlog® & News

Nearby

Air Quality

  Air Quality AQ Index Pollutant
Not available.

Snow Depth

Station Depth Elevation

Earthquake Activity

City Distance Mag. Time & Date
Minimum magnitude displayed is 2.5.

Coastal Water Temperatures

Place Temperature

Stations

Nearby Weather Stations

Station Location Temp. Windchill Dew Point Humidity Wind Precip. Elev Updated Type
                   

Watches & Warnings

There are currently no watches in effect.